createdAt,value
2018-12-15T00:01:17.364Z,36.57
2018-12-15T00:03:46.151Z,37.33
2018-12-15T00:06:14.953Z,33.97
2018-12-15T00:08:43.651Z,35.80
2018-12-15T00:11:12.937Z,31.90
2018-12-15T00:13:41.688Z,38.63
2018-12-15T00:16:11.193Z,34.20
2018-12-15T00:18:40.142Z,33.23
2018-12-15T00:21:08.909Z,41.57
2018-12-15T00:23:37.600Z,36.13
2018-12-15T00:26:06.337Z,37.07
2018-12-15T00:28:35.223Z,38.80
2018-12-15T00:31:04.150Z,38.73
2018-12-15T00:33:32.947Z,35.67
2018-12-15T00:36:01.768Z,41.40
2018-12-15T00:38:30.512Z,37.50
2018-12-15T00:40:59.334Z,38.13
2018-12-15T00:43:28.097Z,42.27
2018-12-15T00:45:57.594Z,36.07
2018-12-15T00:48:26.393Z,38.57
2018-12-15T00:50:55.474Z,41.00
2018-12-15T00:53:24.684Z,36.60
2018-12-15T00:55:53.392Z,39.03
2018-12-15T00:58:22.180Z,41.40
2018-12-15T01:00:50.871Z,38.73
2018-12-15T01:03:20.686Z,38.30
2018-12-15T01:05:49.391Z,38.70
2018-12-15T01:08:19.163Z,38.50
2018-12-15T01:10:47.785Z,37.57
2018-12-15T01:13:16.844Z,36.80
2018-12-15T01:15:45.627Z,37.53
2018-12-15T01:18:15.029Z,40.53
2018-12-15T01:20:43.772Z,37.67
2018-12-15T01:23:12.715Z,37.23
2018-12-15T01:25:41.478Z,36.83
2018-12-15T01:28:11.420Z,36.17
2018-12-15T01:30:40.267Z,37.30
2018-12-15T01:33:09.118Z,36.93
2018-12-15T01:35:37.998Z,40.73
2018-12-15T01:38:06.734Z,40.10
2018-12-15T01:40:36.150Z,41.40
2018-12-15T01:43:04.767Z,40.83
2018-12-15T01:45:33.456Z,42.13
2018-12-15T01:48:02.353Z,43.07
2018-12-15T01:50:31.187Z,42.50
2018-12-15T01:52:59.922Z,41.33
2018-12-15T01:55:28.676Z,40.10
2018-12-15T01:57:57.356Z,41.73
2018-12-15T02:00:26.134Z,41.07
2018-12-15T02:02:54.834Z,43.50
2018-12-15T02:05:23.724Z,42.63
2018-12-15T02:07:52.456Z,41.60
2018-12-15T02:10:21.367Z,43.27
2018-12-15T02:12:50.087Z,40.50
2018-12-15T02:15:18.843Z,42.80
2018-12-15T02:17:47.685Z,46.97
2018-12-15T02:20:16.497Z,43.13
2018-12-15T02:22:45.211Z,43.97
2018-12-15T02:25:13.975Z,45.00
2018-12-15T02:27:43.440Z,43.37
2018-12-15T02:30:12.223Z,40.87
2018-12-15T02:32:40.908Z,45.13
2018-12-15T02:35:09.592Z,46.07
2018-12-15T02:37:38.306Z,43.77
2018-12-15T02:40:07.715Z,46.10
2018-12-15T02:42:36.521Z,43.60
2018-12-15T02:45:05.811Z,45.50
2018-12-15T02:47:41.458Z,41.17
2018-12-15T02:50:06.282Z,42.20
2018-12-15T02:52:35.029Z,41.60
2018-12-15T02:55:04.033Z,44.07
2018-12-15T02:57:32.866Z,41.93
2018-12-15T03:00:01.504Z,41.07
2018-12-15T03:02:30.306Z,45.87
2018-12-15T03:04:59.135Z,43.17
2018-12-15T03:07:27.943Z,48.97
2018-12-15T03:09:56.691Z,45.93
2018-12-15T03:12:25.380Z,48.30
2018-12-15T03:14:54.061Z,47.07
2018-12-15T03:17:22.718Z,45.20
2018-12-15T03:19:51.422Z,46.77
2018-12-15T03:22:20.199Z,44.07
2018-12-15T03:24:48.855Z,50.33
2018-12-15T03:27:19.438Z,49.77
2018-12-15T03:29:48.177Z,45.60
2018-12-15T03:32:16.900Z,46.30
2018-12-15T03:34:45.624Z,49.30
2018-12-15T03:37:14.393Z,48.40
2018-12-15T03:39:43.139Z,48.87
2018-12-15T03:42:11.848Z,47.77
2018-12-15T03:44:40.808Z,45.33
2018-12-15T03:47:09.494Z,49.90
2018-12-15T03:49:38.302Z,47.77
2018-12-15T03:52:07.022Z,46.87
2018-12-15T03:54:35.715Z,46.33
2018-12-15T03:57:04.402Z,52.37
2018-12-15T03:59:33.326Z,50.27
2018-12-15T04:02:02.100Z,48.80
2018-12-15T04:04:32.115Z,47.50
2018-12-15T04:07:00.828Z,47.73
2018-12-15T04:09:29.556Z,52.67
2018-12-15T04:11:58.294Z,49.87
2018-12-15T04:14:27.032Z,47.40
2018-12-15T04:16:55.651Z,49.73
2018-12-15T04:19:25.482Z,49.40
2018-12-15T04:22:00.666Z,49.57
2018-12-15T04:24:29.457Z,48.73
2018-12-15T04:26:58.162Z,48.07
2018-12-15T04:29:26.802Z,49.63
2018-12-15T04:31:55.508Z,50.00
2018-12-15T04:34:24.228Z,46.80
2018-12-15T04:36:52.886Z,46.53
2018-12-15T04:39:22.332Z,50.57
2018-12-15T04:41:51.093Z,49.07
2018-12-15T04:44:19.828Z,48.37
2018-12-15T04:46:48.876Z,44.67
2018-12-15T04:49:17.504Z,46.73
2018-12-15T04:51:46.294Z,47.70
2018-12-15T04:54:15.074Z,47.40
2018-12-15T04:56:43.685Z,49.63
2018-12-15T04:59:12.407Z,48.03
2018-12-15T05:01:41.198Z,45.73
2018-12-15T05:04:09.980Z,46.00
2018-12-15T05:06:38.732Z,45.57
2018-12-15T05:09:07.747Z,46.33
2018-12-15T05:11:36.608Z,46.17
2018-12-15T05:14:05.374Z,48.70
2018-12-15T05:16:34.138Z,47.93
2018-12-15T05:19:02.904Z,44.40
2018-12-15T05:21:31.667Z,42.43
2018-12-15T05:24:00.377Z,43.90
2018-12-15T05:26:29.119Z,40.77
2018-12-15T05:28:57.770Z,40.43
2018-12-15T05:31:26.459Z,41.30
2018-12-15T05:33:56.130Z,43.70
2018-12-15T05:36:24.897Z,43.07
2018-12-15T05:38:53.925Z,41.37
2018-12-15T05:41:22.813Z,43.87
2018-12-15T05:43:51.648Z,43.63
2018-12-15T05:46:20.408Z,36.93
2018-12-15T05:48:49.588Z,45.13
2018-12-15T05:51:18.270Z,41.40
2018-12-15T05:53:46.920Z,40.20
2018-12-15T05:56:15.556Z,40.47
2018-12-15T05:58:44.291Z,41.27
2018-12-15T06:01:13.697Z,42.70
2018-12-15T06:03:42.557Z,40.90
2018-12-15T06:06:11.239Z,40.93
2018-12-15T06:08:40.007Z,41.10
2018-12-15T06:11:08.940Z,42.80
2018-12-15T06:13:37.722Z,39.43
2018-12-15T06:16:06.406Z,41.80
2018-12-15T06:18:38.970Z,40.47
2018-12-15T06:21:07.692Z,36.63
2018-12-15T06:23:36.460Z,39.60
2018-12-15T06:26:05.236Z,35.17
2018-12-15T06:28:34.124Z,37.57
2018-12-15T06:31:02.993Z,40.23
2018-12-15T06:33:36.484Z,38.43
2018-12-15T06:36:05.808Z,36.20
2018-12-15T06:38:59.335Z,36.87
2018-12-15T06:44:16.752Z,31.93
2018-12-15T06:47:04.296Z,37.47
2018-12-15T06:49:34.702Z,33.90
2018-12-15T06:52:03.574Z,35.47
2018-12-15T06:54:32.432Z,35.60
2018-12-15T06:57:01.222Z,37.20
2018-12-15T06:59:30.109Z,36.20
2018-12-15T07:01:58.905Z,37.27
2018-12-15T07:04:27.561Z,37.90
2018-12-15T07:06:56.604Z,42.40
2018-12-15T07:09:26.466Z,40.07
2018-12-15T07:11:55.157Z,39.67
2018-12-15T07:14:23.844Z,37.10
2018-12-15T07:16:52.921Z,34.43
2018-12-15T07:19:21.750Z,36.23
2018-12-15T07:21:51.356Z,37.93
2018-12-15T07:24:20.216Z,35.80
2018-12-15T07:26:49.036Z,37.90
2018-12-15T07:29:17.892Z,37.63
2018-12-15T07:31:46.622Z,40.00
2018-12-15T07:34:15.759Z,38.53
2018-12-15T07:37:03.046Z,33.33
2018-12-15T07:39:35.220Z,38.00
2018-12-15T07:42:04.169Z,37.70
2018-12-15T07:44:33.037Z,36.63
2018-12-15T07:47:02.018Z,37.27
2018-12-15T07:49:30.868Z,37.87
2018-12-15T07:51:59.840Z,35.07
2018-12-15T07:54:28.788Z,36.67
2018-12-15T07:56:58.772Z,35.47
2018-12-15T07:59:27.839Z,31.67
2018-12-15T08:01:56.689Z,35.23
2018-12-15T08:04:25.511Z,35.23
2018-12-15T08:06:54.546Z,35.43
2018-12-15T08:09:23.433Z,30.73
2018-12-15T08:11:57.714Z,35.47
2018-12-15T08:14:26.880Z,34.80
2018-12-15T08:16:55.835Z,35.77
2018-12-15T08:19:24.795Z,33.70
2018-12-15T08:21:53.589Z,31.73
2018-12-15T08:24:22.697Z,30.93
2018-12-15T08:26:51.400Z,27.33
2018-12-15T08:29:20.104Z,31.10
2018-12-15T08:31:48.816Z,31.30
2018-12-15T08:34:17.552Z,30.10
2018-12-15T08:36:46.455Z,27.10
2018-12-15T08:39:15.185Z,34.23
2018-12-15T08:41:44.031Z,23.87
2018-12-15T08:44:13.069Z,25.60
2018-12-15T08:46:41.900Z,20.97
2018-12-15T08:49:10.736Z,22.77
2018-12-15T08:51:39.600Z,20.83
2018-12-15T08:54:08.386Z,23.30
2018-12-15T08:56:38.072Z,24.30
2018-12-15T08:59:06.976Z,21.93
2018-12-15T09:01:35.861Z,24.13
2018-12-15T09:04:04.672Z,23.63
2018-12-15T09:06:33.617Z,24.57
2018-12-15T09:09:02.660Z,22.73
2018-12-15T09:11:31.420Z,29.07
2018-12-15T09:14:00.340Z,27.10
2018-12-15T09:16:33.220Z,30.53
2018-12-15T09:19:02.122Z,27.17
2018-12-15T09:21:30.825Z,26.40
2018-12-15T09:24:00.564Z,21.93
2018-12-15T09:26:29.733Z,20.87
2018-12-15T09:29:00.629Z,20.57
2018-12-15T09:31:29.481Z,21.00
2018-12-15T09:33:58.855Z,20.97
2018-12-15T09:36:27.678Z,23.63
2018-12-15T09:38:56.430Z,23.80
2018-12-15T09:41:25.491Z,26.17
2018-12-15T09:43:54.342Z,30.50
2018-12-15T09:46:23.214Z,27.17
2018-12-15T09:48:52.139Z,26.20
2018-12-15T09:51:21.222Z,23.27
2018-12-15T09:53:50.111Z,29.77
2018-12-15T09:56:20.595Z,26.97
2018-12-15T09:58:49.547Z,30.47
2018-12-15T10:01:19.146Z,27.90
2018-12-15T10:03:48.063Z,28.20
2018-12-15T10:06:17.172Z,31.13
2018-12-15T10:08:46.243Z,23.20
2018-12-15T10:11:15.468Z,24.80
2018-12-15T10:13:44.488Z,27.37
2018-12-15T10:16:17.865Z,27.00
2018-12-15T10:18:46.778Z,27.00
2018-12-15T10:21:15.882Z,24.30
2018-12-15T10:23:44.878Z,25.97
2018-12-15T10:26:14.556Z,30.07
2018-12-15T10:28:43.405Z,25.87
2018-12-15T10:31:22.327Z,29.20
2018-12-15T10:33:51.509Z,28.43
2018-12-15T10:36:21.487Z,27.60
2018-12-15T10:38:50.365Z,29.23
2018-12-15T10:41:19.357Z,30.00
2018-12-15T10:43:48.365Z,32.80
2018-12-15T10:46:17.274Z,29.87
2018-12-15T10:48:48.030Z,31.20
2018-12-15T10:51:17.160Z,34.87
2018-12-15T10:53:46.001Z,36.10
2018-12-15T10:56:15.426Z,33.73
2018-12-15T10:58:44.335Z,31.80
2018-12-15T11:01:18.324Z,39.57
2018-12-15T11:03:47.140Z,31.77
2018-12-15T11:06:16.064Z,34.43
2018-12-15T11:08:44.902Z,37.43
2018-12-15T11:11:13.981Z,37.50
2018-12-15T11:13:43.309Z,34.87
2018-12-15T11:16:12.281Z,33.57
2018-12-15T11:18:41.075Z,30.43
2018-12-15T11:21:10.095Z,30.93
2018-12-15T11:23:44.113Z,31.67
2018-12-15T11:26:13.944Z,30.30
2018-12-15T11:28:42.766Z,31.10
2018-12-15T11:31:11.641Z,34.47
2018-12-15T11:33:40.756Z,33.63
2018-12-15T11:36:09.842Z,29.77
2018-12-15T11:38:39.652Z,30.37
2018-12-15T11:41:14.101Z,30.13
2018-12-15T11:43:43.954Z,28.10
2018-12-15T11:46:13.572Z,27.90
2018-12-15T11:48:43.128Z,29.03
2018-12-15T11:51:12.301Z,33.13
2018-12-15T11:53:41.287Z,31.77
2018-12-15T11:56:10.181Z,31.47
2018-12-15T12:01:16.972Z,29.30
2018-12-15T12:03:46.626Z,31.03
2018-12-15T12:06:19.079Z,30.07
2018-12-15T12:08:50.147Z,30.57
2018-12-15T12:11:22.285Z,33.83
2018-12-15T12:13:52.179Z,34.33
2018-12-15T12:16:23.340Z,32.33
2018-12-15T12:19:04.958Z,34.17
2018-12-15T12:21:33.861Z,30.13
2018-12-15T12:24:02.721Z,32.77
2018-12-15T12:26:31.614Z,29.47
2018-12-15T12:29:00.388Z,26.43
2018-12-15T12:31:29.383Z,31.90
2018-12-15T12:33:58.407Z,30.07
2018-12-15T12:36:27.309Z,29.47
2018-12-15T12:38:56.205Z,33.53
2018-12-15T12:41:24.953Z,30.23
2018-12-15T12:43:54.039Z,33.00
2018-12-15T12:46:22.868Z,33.50
2018-12-15T12:48:51.604Z,31.43
2018-12-15T12:51:20.476Z,35.43
2018-12-15T12:53:49.265Z,30.47
2018-12-15T12:56:18.112Z,32.40
2018-12-15T12:58:47.019Z,39.00
2018-12-15T13:01:16.221Z,35.77
2018-12-15T13:03:45.167Z,38.87
2018-12-15T13:06:14.149Z,35.60
2018-12-15T13:08:43.112Z,34.87
2018-12-15T13:11:12.691Z,38.23
2018-12-15T13:13:41.547Z,36.87
2018-12-15T13:16:10.542Z,37.30
2018-12-15T13:18:39.324Z,37.07
2018-12-15T13:21:08.278Z,38.50
2018-12-15T13:23:38.214Z,38.40
2018-12-15T13:26:07.266Z,34.77
2018-12-15T13:28:36.394Z,33.60
2018-12-15T13:31:07.188Z,35.90
2018-12-15T13:33:37.176Z,37.00
2018-12-15T13:36:14.466Z,30.90
2018-12-15T13:38:44.162Z,38.00
2018-12-15T13:41:13.197Z,38.23
2018-12-15T13:43:42.000Z,36.17
2018-12-15T13:46:11.958Z,41.80
2018-12-15T13:48:42.137Z,37.77
2018-12-15T13:51:11.860Z,35.70
2018-12-15T13:53:42.033Z,39.80
2018-12-15T13:56:11.098Z,37.90
2018-12-15T13:58:44.284Z,40.17
2018-12-15T14:01:13.688Z,34.87
2018-12-15T14:03:42.580Z,38.10
2018-12-15T14:06:12.912Z,37.67
2018-12-15T14:08:41.867Z,42.60
2018-12-15T14:11:10.816Z,37.10
2018-12-15T14:13:39.779Z,41.50
2018-12-15T14:16:08.637Z,40.53
2018-12-15T14:18:38.949Z,35.17
2018-12-15T14:21:08.613Z,38.40
2018-12-15T14:23:37.717Z,40.03
2018-12-15T14:26:06.523Z,35.37
2018-12-15T14:28:35.483Z,36.03
2018-12-15T14:31:05.048Z,38.40
2018-12-15T14:33:34.050Z,35.57
2018-12-15T14:36:03.000Z,37.20
2018-12-15T14:38:36.240Z,40.70
2018-12-15T14:41:06.656Z,42.13
2018-12-15T14:43:36.730Z,36.67
2018-12-15T14:46:05.646Z,40.87
2018-12-15T14:48:34.700Z,40.63
2018-12-15T14:51:03.604Z,36.60
2018-12-15T14:53:32.410Z,37.13
2018-12-15T14:56:01.185Z,40.13
2018-12-15T14:58:29.963Z,40.77
2018-12-15T15:00:59.890Z,40.07
2018-12-15T15:03:29.288Z,40.57
2018-12-15T15:05:58.207Z,41.37
2018-12-15T15:08:28.155Z,38.13
2018-12-15T15:10:56.878Z,40.73
2018-12-15T15:13:26.468Z,38.97
2018-12-15T15:16:02.084Z,40.97
2018-12-15T15:18:30.979Z,38.73
2018-12-15T15:21:00.579Z,43.07
2018-12-15T15:23:29.348Z,38.30
2018-12-15T15:25:59.662Z,39.77
2018-12-15T15:28:28.752Z,39.90
2018-12-15T15:30:57.508Z,41.00
2018-12-15T15:33:26.292Z,41.20
2018-12-15T15:35:55.392Z,40.90
2018-12-15T15:38:24.257Z,40.87
2018-12-15T15:40:53.346Z,40.77
2018-12-15T15:43:27.172Z,42.27
2018-12-15T15:46:00.287Z,37.63
2018-12-15T15:48:30.415Z,40.47
2018-12-15T15:50:59.296Z,39.73
2018-12-15T15:53:28.083Z,35.07
2018-12-15T15:55:56.930Z,37.90
2018-12-15T15:58:26.179Z,38.07
2018-12-15T16:00:54.884Z,45.70
2018-12-15T16:03:23.545Z,38.03
2018-12-15T16:05:52.441Z,37.20
2018-12-15T16:08:24.975Z,36.70
2018-12-15T16:10:55.579Z,39.63
2018-12-15T16:13:30.857Z,36.10
2018-12-15T16:16:00.505Z,38.90
2018-12-15T16:18:29.660Z,40.03
2018-12-15T16:21:00.518Z,39.83
2018-12-15T16:23:30.102Z,40.27
2018-12-15T16:25:59.025Z,38.30
2018-12-15T16:28:28.174Z,38.73
2018-12-15T16:30:57.274Z,37.13
2018-12-15T16:33:26.274Z,38.60
2018-12-15T16:35:55.150Z,39.93
2018-12-15T16:38:24.861Z,37.43
2018-12-15T16:40:55.018Z,35.50
2018-12-15T16:43:23.922Z,38.70
2018-12-15T16:45:52.707Z,38.10
2018-12-15T16:48:21.678Z,35.83
2018-12-15T16:50:50.922Z,37.37
2018-12-15T16:53:19.852Z,35.57
2018-12-15T16:55:48.629Z,38.33
2018-12-15T16:58:17.298Z,36.60
2018-12-15T17:00:46.034Z,35.83
2018-12-15T17:03:15.027Z,37.10
2018-12-15T17:05:43.697Z,36.57
2018-12-15T17:08:12.437Z,39.10
2018-12-15T17:10:41.407Z,35.43
2018-12-15T17:13:10.374Z,34.40
2018-12-15T17:15:39.121Z,35.73
2018-12-15T17:18:08.286Z,36.27
2018-12-15T17:20:37.169Z,40.43
2018-12-15T17:23:05.968Z,37.03
2018-12-15T17:25:34.846Z,32.60
2018-12-15T17:28:03.847Z,37.47
2018-12-15T17:30:32.999Z,38.63
2018-12-15T17:33:02.629Z,36.80
2018-12-15T17:35:32.752Z,34.80
2018-12-15T17:38:02.278Z,37.20
2018-12-15T17:40:31.175Z,38.63
2018-12-15T17:43:05.501Z,37.13
2018-12-15T17:45:41.546Z,34.83
2018-12-15T17:48:13.295Z,34.20
2018-12-15T17:50:42.618Z,34.10
2018-12-15T17:56:03.715Z,36.73
2018-12-15T17:58:35.603Z,35.10
2018-12-15T18:01:06.024Z,38.00
2018-12-15T18:03:37.952Z,41.03
2018-12-15T18:06:07.454Z,38.63
2018-12-15T18:08:41.635Z,39.00
2018-12-15T18:11:13.777Z,34.77
2018-12-15T18:13:44.036Z,35.10
2018-12-15T18:16:12.989Z,36.30
2018-12-15T18:18:44.363Z,48.40
2018-12-15T18:21:16.919Z,39.57
2018-12-15T18:23:46.211Z,41.87
2018-12-15T18:26:15.783Z,37.30
2018-12-15T18:28:45.953Z,37.03
2018-12-15T18:31:16.395Z,32.07
2018-12-15T18:33:45.561Z,34.63
2018-12-15T18:36:15.222Z,34.47
2018-12-15T18:38:44.609Z,34.67
2018-12-15T18:41:13.883Z,40.07
2018-12-15T18:43:43.893Z,37.87
2018-12-15T18:46:12.906Z,36.80
2018-12-15T18:48:41.680Z,34.93
2018-12-15T18:51:16.191Z,34.40
2018-12-15T18:53:41.052Z,35.83
2018-12-15T18:56:09.734Z,36.67
2018-12-15T18:58:38.638Z,33.97
2018-12-15T19:01:07.412Z,32.67
2018-12-15T19:03:36.913Z,35.83
2018-12-15T19:06:05.566Z,38.50
2018-12-15T19:08:34.337Z,36.23
2018-12-15T19:11:04.445Z,36.10
2018-12-15T19:13:33.424Z,32.23
2018-12-15T19:16:02.443Z,38.23
2018-12-15T19:18:32.245Z,35.73
2018-12-15T19:21:00.984Z,36.93
2018-12-15T19:23:30.492Z,35.80
2018-12-15T19:25:59.326Z,31.80
2018-12-15T19:28:28.969Z,35.07
2018-12-15T19:30:58.842Z,32.17
2018-12-15T19:33:28.415Z,38.67
2018-12-15T19:35:57.123Z,35.50
2018-12-15T19:38:25.809Z,32.53
2018-12-15T19:40:54.519Z,34.93
2018-12-15T19:43:23.180Z,35.57
2018-12-15T19:45:52.109Z,35.43
2018-12-15T19:48:21.814Z,31.73
2018-12-15T19:50:51.001Z,35.83
2018-12-15T19:53:19.973Z,32.47
2018-12-15T19:55:48.709Z,32.87
2018-12-15T19:58:18.530Z,37.17
2018-12-15T20:00:47.354Z,37.17
2018-12-15T20:03:16.915Z,33.27
2018-12-15T20:05:45.782Z,31.07
2018-12-15T20:08:15.769Z,33.90
2018-12-15T20:10:44.966Z,32.97
2018-12-15T20:13:14.369Z,36.70
2018-12-15T20:15:43.958Z,34.50
2018-12-15T20:18:12.926Z,36.27
2018-12-15T20:20:41.753Z,35.67
2018-12-15T20:23:12.021Z,34.27
2018-12-15T20:25:41.796Z,30.33
2018-12-15T20:28:12.727Z,33.53
2018-12-15T20:30:41.644Z,35.40
2018-12-15T20:33:11.261Z,34.87
2018-12-15T20:35:40.201Z,34.73
2018-12-15T20:38:09.102Z,33.87
2018-12-15T20:40:39.060Z,32.77
2018-12-15T20:43:07.976Z,34.40
2018-12-15T20:45:36.734Z,32.43
2018-12-15T20:48:05.643Z,32.80
2018-12-15T20:50:34.576Z,34.03
2018-12-15T20:53:04.038Z,37.07
2018-12-15T20:55:33.605Z,32.83
2018-12-15T20:58:02.540Z,36.77
2018-12-15T21:00:32.865Z,33.47
2018-12-15T21:03:01.825Z,32.97
2018-12-15T21:05:36.627Z,35.13
2018-12-15T21:08:01.724Z,32.47
2018-12-15T21:10:30.572Z,34.90
2018-12-15T21:12:59.480Z,36.90
2018-12-15T21:15:31.619Z,38.07
2018-12-15T21:18:01.215Z,35.30
2018-12-15T21:20:30.281Z,31.53
2018-12-15T21:23:00.890Z,30.07
2018-12-15T21:25:30.275Z,34.00
2018-12-15T21:27:59.076Z,34.13
2018-12-15T21:30:27.868Z,32.60
2018-12-15T21:32:57.385Z,33.10
2018-12-15T21:35:26.156Z,34.03
2018-12-15T21:37:55.794Z,33.27
2018-12-15T21:40:25.804Z,31.57
2018-12-15T21:42:54.778Z,35.10
2018-12-15T21:45:23.912Z,32.37
2018-12-15T21:47:57.672Z,36.10
2018-12-15T21:50:24.572Z,34.93
2018-12-15T21:52:53.338Z,37.37
2018-12-15T21:55:22.849Z,31.23
2018-12-15T21:58:03.083Z,33.53
2018-12-15T22:00:37.185Z,32.03
2018-12-15T22:03:06.445Z,33.93
2018-12-15T22:05:38.104Z,37.83
2018-12-15T22:08:07.089Z,34.47
2018-12-15T22:10:36.208Z,34.33
2018-12-15T22:13:06.079Z,34.60
2018-12-15T22:15:36.588Z,34.67
2018-12-15T22:18:05.576Z,34.83
2018-12-15T22:20:34.537Z,35.37
2018-12-15T22:23:03.926Z,34.20
2018-12-15T22:25:32.992Z,34.83
2018-12-15T22:28:01.902Z,32.33
2018-12-15T22:30:30.627Z,33.87
2018-12-15T22:32:59.469Z,30.80
2018-12-15T22:35:29.189Z,35.97
2018-12-15T22:37:57.971Z,34.83
2018-12-15T22:40:26.752Z,34.43
2018-12-15T22:42:55.488Z,38.03
2018-12-15T22:45:24.442Z,39.10
2018-12-15T22:47:53.138Z,36.10
2018-12-15T22:50:21.941Z,32.27
2018-12-15T22:52:51.764Z,36.57
2018-12-15T22:55:20.623Z,35.27
2018-12-15T22:57:49.343Z,37.33
2018-12-15T23:00:18.231Z,32.73
2018-12-15T23:02:47.155Z,36.17
2018-12-15T23:05:15.945Z,35.40
2018-12-15T23:07:44.697Z,35.40
2018-12-15T23:10:14.233Z,34.60
2018-12-15T23:12:43.075Z,37.47
2018-12-15T23:15:11.896Z,34.33
2018-12-15T23:17:40.787Z,34.03
2018-12-15T23:20:10.092Z,34.43
2018-12-15T23:22:39.001Z,34.60
2018-12-15T23:25:08.001Z,37.37
2018-12-15T23:27:37.549Z,32.90
2018-12-15T23:30:07.736Z,35.30
2018-12-15T23:32:36.606Z,36.30
2018-12-15T23:35:05.682Z,36.33
2018-12-15T23:37:35.686Z,41.13
2018-12-15T23:40:04.966Z,44.93
2018-12-15T23:42:34.402Z,45.43
2018-12-15T23:45:03.284Z,46.40
2018-12-15T23:47:33.076Z,52.33
2018-12-15T23:50:01.817Z,49.97
2018-12-15T23:52:30.643Z,54.67
2018-12-15T23:54:59.405Z,55.33
2018-12-15T23:57:28.843Z,60.50
2018-12-15T23:59:57.522Z,61.03
